Terminal Aerodrome Forecast
Issued by NWS

Home | Current Version | Previous Version | Text Only | Print | Product List | Glossary On
Versions: 1 2 3 4 5 6 7 8 9 10 11 12 13 14 15 16 17 18
000
FTUS46 KMFR 210500 RRA
TAFLMT
TAF
KLMT 210548Z 2106/2206 VRB03KT P6SM SCT200
     FM211800 18007KT P6SM BKN120
     FM212100 20015G25KT P6SM BKN080 BKN120
     FM220500 23012G20KT P6SM -RA SCT035 OVC050=

USA.gov is the U.S. government's official web portal to all federal, state and local government web resources and services.